createdAt,value
2019-03-31T00:01:49.998Z,101848.54
2019-03-31T00:04:19.696Z,101858.11
2019-03-31T00:06:49.420Z,101857.55
2019-03-31T00:09:19.103Z,101861.78
2019-03-31T00:11:48.813Z,101865.14
2019-03-31T00:14:18.537Z,101866.97
2019-03-31T00:16:48.261Z,101864.61
2019-03-31T00:19:18.014Z,101858.66
2019-03-31T00:21:47.699Z,101871.84
2019-03-31T00:24:17.417Z,101871.47
2019-03-31T00:26:47.107Z,101875.03
2019-03-31T00:29:16.837Z,101877.39
2019-03-31T00:31:46.527Z,101879.85
2019-03-31T00:34:16.310Z,101878.59
2019-03-31T00:36:46.041Z,101882.49
2019-03-31T00:39:15.755Z,101882.17
2019-03-31T00:41:45.487Z,101881.17
2019-03-31T00:44:15.214Z,101885.99
2019-03-31T00:46:45.841Z,101883.49
2019-03-31T00:49:15.576Z,101886.49
2019-03-31T00:51:45.319Z,101880.89
2019-03-31T00:54:15.018Z,101878.47
2019-03-31T00:56:44.755Z,101868.97
2019-03-31T00:59:14.538Z,101877.42
2019-03-31T01:01:47.310Z,101870.81
2019-03-31T01:04:18.693Z,101872.06
2019-03-31T01:06:50.577Z,101874.72
2019-03-31T01:09:24.365Z,101878.59
2019-03-31T01:11:54.075Z,101876.58
2019-03-31T01:14:23.830Z,101881.33
2019-03-31T01:16:54.044Z,101879.00
2019-03-31T01:19:23.994Z,101887.47
2019-03-31T01:21:53.699Z,101896.84
2019-03-31T01:24:23.536Z,101892.14
2019-03-31T01:26:53.225Z,101892.73
2019-03-31T01:29:23.711Z,101898.64
2019-03-31T01:31:54.381Z,101892.63
2019-03-31T01:34:24.195Z,101900.12
2019-03-31T01:36:53.920Z,101900.62
2019-03-31T01:39:24.822Z,101903.08
2019-03-31T01:41:54.512Z,101903.97
2019-03-31T01:44:24.236Z,101907.92
2019-03-31T01:46:54.143Z,101913.88
2019-03-31T01:49:23.942Z,101914.47
2019-03-31T01:51:53.740Z,101920.06
2019-03-31T01:54:23.586Z,101922.88
2019-03-31T01:56:53.290Z,101933.16
2019-03-31T01:59:23.112Z,101931.98
2019-03-31T02:02:03.645Z,101932.52
2019-03-31T02:04:24.427Z,101930.91
2019-03-31T02:06:54.252Z,101939.68
2019-03-31T02:09:23.946Z,101942.32
2019-03-31T02:11:53.676Z,101942.41
2019-03-31T02:14:23.532Z,101939.89
2019-03-31T02:16:53.518Z,101941.56
2019-03-31T02:19:23.215Z,101947.16
2019-03-31T02:21:52.886Z,101949.31
2019-03-31T02:24:22.621Z,101948.58
2019-03-31T02:26:52.305Z,101950.30
2019-03-31T02:29:22.334Z,101946.49
2019-03-31T02:31:52.037Z,101951.34
2019-03-31T02:34:21.924Z,101944.71
2019-03-31T02:36:51.686Z,101940.37
2019-03-31T02:39:22.395Z,101946.51
2019-03-31T02:41:52.401Z,101937.59
2019-03-31T02:44:22.123Z,101938.70
2019-03-31T02:46:51.955Z,101943.55
2019-03-31T02:49:21.680Z,101941.84
2019-03-31T02:51:51.430Z,101944.16
2019-03-31T02:54:21.563Z,101947.57
2019-03-31T02:56:51.493Z,101937.00
2019-03-31T02:59:21.429Z,101937.09
2019-03-31T03:01:52.537Z,101947.53
2019-03-31T03:04:23.064Z,101950.05
2019-03-31T03:06:54.016Z,101953.55
2019-03-31T03:09:26.107Z,101951.63
2019-03-31T03:11:57.705Z,101952.50
2019-03-31T03:14:28.830Z,101957.94
2019-03-31T03:16:59.443Z,101959.77
2019-03-31T03:19:29.173Z,101962.05
2019-03-31T03:21:59.214Z,101964.20
2019-03-31T03:24:28.937Z,101964.91
2019-03-31T03:26:58.738Z,101972.20
2019-03-31T03:29:28.448Z,101966.55
2019-03-31T03:31:58.179Z,101975.16
2019-03-31T03:34:27.939Z,101982.02
2019-03-31T03:36:57.673Z,101980.00
2019-03-31T03:39:27.409Z,101976.67
2019-03-31T03:41:57.116Z,101975.60
2019-03-31T03:44:26.854Z,101977.21
2019-03-31T03:46:56.691Z,101977.21
2019-03-31T03:49:26.521Z,101977.45
2019-03-31T03:51:56.331Z,101976.31
2019-03-31T03:54:26.063Z,101984.75
2019-03-31T03:56:55.792Z,101993.81
2019-03-31T03:59:25.491Z,101984.92
2019-03-31T04:01:55.230Z,101992.72
2019-03-31T04:04:24.922Z,101986.22
2019-03-31T04:06:54.807Z,101984.33
2019-03-31T04:09:24.539Z,101987.16
2019-03-31T04:11:54.266Z,101986.80
2019-03-31T04:14:23.947Z,101995.73
2019-03-31T04:16:53.813Z,101993.27
2019-03-31T04:19:23.513Z,101995.36
2019-03-31T04:21:53.200Z,101996.78
2019-03-31T04:24:22.922Z,102002.67
2019-03-31T04:26:52.605Z,102006.03
2019-03-31T04:29:22.424Z,102018.64
2019-03-31T04:31:52.292Z,102014.69
2019-03-31T04:34:22.018Z,102016.30
2019-03-31T04:36:51.728Z,102018.23
2019-03-31T04:39:21.842Z,102025.34
2019-03-31T04:41:51.537Z,102031.25
2019-03-31T04:44:21.282Z,102031.08
2019-03-31T04:46:51.032Z,102030.48
2019-03-31T04:49:20.705Z,102028.73
2019-03-31T04:51:50.552Z,102036.29
2019-03-31T04:54:20.249Z,102035.38
2019-03-31T04:56:49.958Z,102043.82
2019-03-31T04:59:19.684Z,102046.55
2019-03-31T05:01:49.455Z,102046.55
2019-03-31T05:04:19.197Z,102048.41
2019-03-31T05:06:48.990Z,102047.52
2019-03-31T05:09:18.703Z,102048.72
2019-03-31T05:11:48.423Z,102061.75
2019-03-31T05:14:18.158Z,102061.75
2019-03-31T05:16:48.980Z,102067.39
2019-03-31T05:19:18.733Z,102071.98
2019-03-31T05:21:48.453Z,102068.53
2019-03-31T05:24:18.153Z,102074.51
2019-03-31T05:26:47.869Z,102080.96
2019-03-31T05:29:17.675Z,102080.88
2019-03-31T05:31:47.359Z,102081.71
2019-03-31T05:34:19.216Z,102082.27
2019-03-31T05:36:48.460Z,102081.09
2019-03-31T05:39:18.164Z,102083.24
2019-03-31T05:41:47.861Z,102094.24
2019-03-31T05:44:17.543Z,102091.88
2019-03-31T05:46:47.272Z,102089.91
2019-03-31T05:49:16.972Z,102097.33
2019-03-31T05:51:46.669Z,102098.00
2019-03-31T05:54:16.422Z,102098.27
2019-03-31T05:56:46.248Z,102097.33
2019-03-31T05:59:15.949Z,102105.77
2019-03-31T06:01:45.710Z,102109.44
2019-03-31T06:04:15.495Z,102117.87
2019-03-31T06:06:45.340Z,102116.30
2019-03-31T06:09:15.104Z,102115.19
2019-03-31T06:11:44.800Z,102124.87
2019-03-31T06:14:14.872Z,102126.05
2019-03-31T06:16:44.572Z,102124.52
2019-03-31T06:19:14.321Z,102125.73
2019-03-31T06:21:44.028Z,102132.38
2019-03-31T06:24:13.767Z,102134.98
2019-03-31T06:26:43.519Z,102138.03
2019-03-31T06:29:13.312Z,102135.16
2019-03-31T06:31:43.022Z,102141.20
2019-03-31T06:34:12.719Z,102140.95
2019-03-31T06:36:42.467Z,102140.59
2019-03-31T06:39:12.236Z,102139.64
2019-03-31T06:41:41.954Z,102141.29
2019-03-31T06:44:11.710Z,102145.95
2019-03-31T06:46:41.419Z,102141.96
2019-03-31T06:49:11.194Z,102147.80
2019-03-31T06:51:41.083Z,102142.52
2019-03-31T06:54:10.807Z,102148.70
2019-03-31T06:56:46.897Z,102141.00
2019-03-31T06:59:15.108Z,102144.56
2019-03-31T07:01:44.839Z,102151.27
2019-03-31T07:04:14.520Z,102160.00
2019-03-31T07:06:44.358Z,102163.00
2019-03-31T07:09:14.081Z,102158.86
2019-03-31T07:11:43.792Z,102156.41
2019-03-31T07:14:13.541Z,102163.49
2019-03-31T07:16:43.261Z,102166.90
2019-03-31T07:19:12.973Z,102164.23
2019-03-31T07:21:42.780Z,102178.45
2019-03-31T07:24:12.531Z,102178.51
2019-03-31T07:26:42.222Z,102179.04
2019-03-31T07:29:11.949Z,102179.25
2019-03-31T07:31:41.929Z,102185.47
2019-03-31T07:34:11.667Z,102186.57
2019-03-31T07:36:41.381Z,102190.98
2019-03-31T07:39:11.367Z,102195.75
2019-03-31T07:41:41.472Z,102196.41
2019-03-31T07:44:11.183Z,102206.30
2019-03-31T07:46:41.030Z,102208.95
2019-03-31T07:49:10.748Z,102213.25
2019-03-31T07:51:40.516Z,102207.80
2019-03-31T07:54:10.320Z,102212.56
2019-03-31T07:56:40.035Z,102212.23
2019-03-31T07:59:12.396Z,102210.02
2019-03-31T08:01:42.041Z,102216.27
2019-03-31T08:04:11.794Z,102214.00
2019-03-31T08:06:41.655Z,102215.78
2019-03-31T08:09:11.360Z,102217.38
2019-03-31T08:11:41.096Z,102218.34
2019-03-31T08:14:10.856Z,102223.05
2019-03-31T08:16:43.346Z,102224.18
2019-03-31T08:19:13.089Z,102218.88
2019-03-31T08:21:42.877Z,102219.53
2019-03-31T08:24:12.681Z,102215.97
2019-03-31T08:26:42.677Z,102228.57
2019-03-31T08:29:12.374Z,102228.20
2019-03-31T08:31:42.207Z,102228.05
2019-03-31T08:34:12.219Z,102233.32
2019-03-31T08:36:41.932Z,102237.58
2019-03-31T08:39:11.627Z,102240.88
2019-03-31T08:41:41.387Z,102235.69
2019-03-31T08:44:11.146Z,102240.86
2019-03-31T08:46:40.836Z,102243.89
2019-03-31T08:49:10.561Z,102244.05
2019-03-31T08:51:40.280Z,102250.89
2019-03-31T08:54:10.058Z,102246.67
2019-03-31T08:56:39.749Z,102256.19
2019-03-31T08:59:09.453Z,102247.59
2019-03-31T09:01:39.153Z,102250.48
2019-03-31T09:04:08.896Z,102249.12
2019-03-31T09:06:38.574Z,102253.17
2019-03-31T09:09:09.127Z,102253.33
2019-03-31T09:11:38.876Z,102253.64
2019-03-31T09:14:08.562Z,102253.91
2019-03-31T09:16:38.575Z,102255.83
2019-03-31T09:19:08.254Z,102254.58
2019-03-31T09:21:37.998Z,102253.46
2019-03-31T09:24:07.673Z,102248.94
2019-03-31T09:26:37.415Z,102257.06
2019-03-31T09:29:07.236Z,102272.37
2019-03-31T09:31:36.937Z,102276.83
2019-03-31T09:34:06.643Z,102284.11
2019-03-31T09:36:36.373Z,102284.61
2019-03-31T09:39:06.688Z,102291.86
2019-03-31T09:41:36.502Z,102289.78
2019-03-31T09:44:06.234Z,102291.50
2019-03-31T09:46:35.960Z,102294.80
2019-03-31T09:49:05.790Z,102291.08
2019-03-31T09:51:35.496Z,102296.08
2019-03-31T09:54:05.281Z,102293.75
2019-03-31T09:56:35.015Z,102293.91
2019-03-31T09:59:04.737Z,102290.98
2019-03-31T10:01:34.549Z,102293.28
2019-03-31T10:04:03.072Z,102293.52
2019-03-31T10:06:31.663Z,102297.16
2019-03-31T10:09:02.211Z,102292.55
2019-03-31T10:11:31.912Z,102302.01
2019-03-31T10:14:01.614Z,102291.75
2019-03-31T10:16:31.469Z,102298.22
2019-03-31T10:19:01.169Z,102291.70
2019-03-31T10:21:30.904Z,102295.80
2019-03-31T10:24:00.703Z,102296.48
2019-03-31T10:26:32.271Z,102298.67
2019-03-31T10:29:02.128Z,102301.25
2019-03-31T10:31:31.838Z,102299.59
2019-03-31T10:34:02.146Z,102299.59
2019-03-31T10:36:43.842Z,102291.91
2019-03-31T10:39:04.135Z,102300.20
2019-03-31T10:41:33.858Z,102306.10
2019-03-31T10:44:03.666Z,102297.97
2019-03-31T10:46:33.375Z,102291.27
2019-03-31T10:49:03.121Z,102291.20
2019-03-31T10:51:31.683Z,102289.16
2019-03-31T10:54:04.446Z,102289.16
2019-03-31T10:56:33.062Z,102285.04
2019-03-31T10:59:02.747Z,102278.56
2019-03-31T11:01:32.451Z,102282.34
2019-03-31T11:04:02.468Z,102290.05
2019-03-31T11:06:32.193Z,102288.34
2019-03-31T11:09:02.113Z,102295.28
2019-03-31T11:11:31.812Z,102288.70
2019-03-31T11:14:01.583Z,102292.23
2019-03-31T11:16:31.460Z,102289.62
2019-03-31T11:19:01.280Z,102285.91
2019-03-31T11:22:08.115Z,102290.69
2019-03-31T11:24:37.828Z,102305.50
2019-03-31T11:27:07.752Z,102301.87
2019-03-31T11:29:37.460Z,102296.28
2019-03-31T11:32:07.142Z,102308.23
2019-03-31T11:34:36.895Z,102304.73
2019-03-31T11:37:13.278Z,102309.77
2019-03-31T11:39:38.072Z,102307.14
2019-03-31T11:42:08.238Z,102308.56
2019-03-31T11:44:37.940Z,102301.08
2019-03-31T11:47:07.700Z,102302.55
2019-03-31T11:49:37.504Z,102299.70
2019-03-31T11:52:07.247Z,102298.53
2019-03-31T11:54:36.949Z,102299.77
2019-03-31T11:57:06.741Z,102294.02
2019-03-31T11:59:36.446Z,102294.59
2019-03-31T12:02:06.235Z,102295.05
2019-03-31T12:04:35.983Z,102300.20
2019-03-31T12:07:05.738Z,102296.39
2019-03-31T12:09:35.453Z,102297.79
2019-03-31T12:12:05.201Z,102298.37
2019-03-31T12:14:35.006Z,102303.37
2019-03-31T12:17:04.851Z,102296.97
2019-03-31T12:19:34.610Z,102294.89
2019-03-31T12:22:04.778Z,102299.23
2019-03-31T12:24:34.597Z,102290.31
2019-03-31T12:27:04.352Z,102288.42
2019-03-31T12:29:34.050Z,102286.70
2019-03-31T12:32:03.739Z,102282.27
2019-03-31T12:34:33.502Z,102282.00
2019-03-31T12:37:03.265Z,102280.41
2019-03-31T12:39:32.974Z,102278.14
2019-03-31T12:42:02.717Z,102272.78
2019-03-31T12:44:33.103Z,102274.78
2019-03-31T12:47:02.868Z,102287.73
2019-03-31T12:49:32.650Z,102273.75
2019-03-31T12:52:02.397Z,102282.62
2019-03-31T12:54:32.163Z,102271.97
2019-03-31T12:57:02.510Z,102272.47
2019-03-31T12:59:32.216Z,102263.87
2019-03-31T13:02:01.949Z,102267.34
2019-03-31T13:04:31.693Z,102277.48
2019-03-31T13:07:02.548Z,102273.52
2019-03-31T13:09:32.284Z,102264.19
2019-03-31T13:12:01.995Z,102258.86
2019-03-31T13:14:31.745Z,102263.56
2019-03-31T13:17:01.774Z,102261.41
2019-03-31T13:19:31.510Z,102262.20
2019-03-31T13:22:01.694Z,102258.92
2019-03-31T13:24:31.437Z,102247.66
2019-03-31T13:27:01.247Z,102249.88
2019-03-31T13:29:30.938Z,102253.34
2019-03-31T13:32:00.701Z,102245.96
2019-03-31T13:34:30.535Z,102245.59
2019-03-31T13:37:00.246Z,102250.44
2019-03-31T13:39:29.968Z,102246.16
2019-03-31T13:41:59.670Z,102249.55
2019-03-31T13:44:29.415Z,102247.09
2019-03-31T13:46:59.117Z,102243.58
2019-03-31T13:49:28.843Z,102243.68
2019-03-31T13:51:58.683Z,102240.61
2019-03-31T13:54:30.842Z,102235.17
2019-03-31T13:57:00.702Z,102225.48
2019-03-31T13:59:30.536Z,102228.04
2019-03-31T14:02:00.558Z,102227.56
2019-03-31T14:04:30.348Z,102235.63
2019-03-31T14:07:00.401Z,102233.20
2019-03-31T14:09:30.207Z,102225.77
2019-03-31T14:12:00.049Z,102220.92
2019-03-31T14:14:29.877Z,102223.80
2019-03-31T14:16:59.675Z,102236.05
2019-03-31T14:19:29.614Z,102230.78
2019-03-31T14:21:59.412Z,102239.67
2019-03-31T14:24:29.159Z,102235.06
2019-03-31T14:26:58.858Z,102238.29
2019-03-31T14:29:28.592Z,102235.06
2019-03-31T14:31:58.297Z,102230.74
2019-03-31T14:34:28.158Z,102235.80
2019-03-31T14:36:58.039Z,102233.00
2019-03-31T14:39:27.774Z,102231.19
2019-03-31T14:41:57.492Z,102232.45
2019-03-31T14:44:27.286Z,102228.02
2019-03-31T14:46:56.967Z,102229.70
2019-03-31T14:49:26.687Z,102218.88
2019-03-31T14:51:56.579Z,102217.48
2019-03-31T14:54:26.305Z,102216.82
2019-03-31T14:56:56.024Z,102222.36
2019-03-31T14:59:25.753Z,102226.41
2019-03-31T15:01:55.612Z,102231.42
2019-03-31T15:04:25.293Z,102225.12
2019-03-31T15:06:54.988Z,102220.50
2019-03-31T15:09:24.836Z,102217.66
2019-03-31T15:11:54.554Z,102220.81
2019-03-31T15:14:24.313Z,102215.22
2019-03-31T15:16:54.171Z,102209.45
2019-03-31T15:19:23.957Z,102213.02
2019-03-31T15:21:53.644Z,102213.59
2019-03-31T15:24:23.596Z,102225.52
2019-03-31T15:26:53.291Z,102223.59
2019-03-31T15:29:23.049Z,102221.88
2019-03-31T15:31:52.844Z,102222.82
2019-03-31T15:34:22.562Z,102215.51
2019-03-31T15:36:52.263Z,102217.51
2019-03-31T15:39:22.594Z,102213.16
2019-03-31T15:41:52.305Z,102217.32
2019-03-31T15:44:22.046Z,102216.57
2019-03-31T15:46:51.776Z,102225.70
2019-03-31T15:49:21.490Z,102216.63
2019-03-31T15:51:51.242Z,102209.60
2019-03-31T15:54:21.001Z,102225.67
2019-03-31T15:56:50.851Z,102225.12
2019-03-31T15:59:20.590Z,102229.44
2019-03-31T16:01:50.371Z,102233.53
2019-03-31T16:04:20.205Z,102236.35
2019-03-31T16:06:50.430Z,102241.66
2019-03-31T16:09:23.687Z,102238.46
2019-03-31T16:11:53.905Z,102237.63
2019-03-31T16:14:21.707Z,102231.18
2019-03-31T16:16:51.985Z,102231.98
2019-03-31T16:19:21.285Z,102233.63
2019-03-31T16:21:50.475Z,102244.97
2019-03-31T16:24:33.238Z,102236.47
2019-03-31T16:27:02.527Z,102230.72
2019-03-31T16:29:31.719Z,102229.78
2019-03-31T16:32:01.990Z,102234.01
2019-03-31T16:34:32.526Z,102230.36
2019-03-31T16:37:03.364Z,102234.95
2019-03-31T16:39:37.958Z,102231.73
2019-03-31T16:42:03.544Z,102233.05
2019-03-31T16:44:34.551Z,102250.77
2019-03-31T16:47:03.752Z,102244.82
2019-03-31T16:49:32.964Z,102244.67
2019-03-31T16:52:02.143Z,102252.06
2019-03-31T16:54:31.313Z,102258.02
2019-03-31T16:57:00.551Z,102256.10
2019-03-31T16:59:29.888Z,102262.30
2019-03-31T17:01:59.144Z,102263.95
2019-03-31T17:04:28.375Z,102268.67
2019-03-31T17:06:58.055Z,102276.00
2019-03-31T17:09:27.244Z,102269.69
2019-03-31T17:11:56.478Z,102279.21
2019-03-31T17:14:25.775Z,102282.66
2019-03-31T17:16:54.972Z,102284.34
2019-03-31T17:19:24.462Z,102290.58
2019-03-31T17:21:53.714Z,102283.86
2019-03-31T17:24:22.977Z,102287.91
2019-03-31T17:26:52.282Z,102295.25
2019-03-31T17:29:21.517Z,102290.99
2019-03-31T17:31:50.834Z,102300.37
2019-03-31T17:34:20.068Z,102299.31
2019-03-31T17:36:49.313Z,102297.05
2019-03-31T17:39:18.499Z,102292.02
2019-03-31T17:41:47.728Z,102299.27
2019-03-31T17:44:16.967Z,102305.28
2019-03-31T17:46:46.239Z,102301.36
2019-03-31T17:49:15.532Z,102310.10
2019-03-31T17:51:44.720Z,102311.84
2019-03-31T17:54:13.948Z,102312.55
2019-03-31T17:56:43.162Z,102312.55
2019-03-31T17:59:13.407Z,102311.48
2019-03-31T18:01:42.923Z,102303.77
2019-03-31T18:04:12.289Z,102312.05
2019-03-31T18:06:43.826Z,102307.33
2019-03-31T18:09:14.940Z,102318.03
2019-03-31T18:11:45.160Z,102315.45
2019-03-31T18:14:14.424Z,102323.93
2019-03-31T18:16:43.672Z,102329.65
2019-03-31T18:19:13.121Z,102329.78
2019-03-31T18:21:42.418Z,102327.89
2019-03-31T18:24:11.710Z,102327.38
2019-03-31T18:26:40.956Z,102330.48
2019-03-31T18:29:10.433Z,102335.56
2019-03-31T18:31:39.901Z,102338.95
2019-03-31T18:34:11.491Z,102336.50
2019-03-31T18:36:40.988Z,102335.52
2019-03-31T18:39:11.719Z,102345.05
2019-03-31T18:41:41.132Z,102343.27
2019-03-31T18:44:10.565Z,102345.92
2019-03-31T18:46:40.098Z,102343.43
2019-03-31T18:49:10.603Z,102351.23
2019-03-31T18:51:39.983Z,102356.70
2019-03-31T18:54:44.539Z,102355.12
2019-03-31T18:57:28.197Z,102349.38
2019-03-31T19:00:16.522Z,102357.97
2019-03-31T19:03:03.376Z,102359.09
2019-03-31T19:05:54.296Z,102368.39
2019-03-31T19:08:45.805Z,102373.23
2019-03-31T19:11:33.049Z,102380.14
2019-03-31T19:14:22.573Z,102384.70
2019-03-31T19:17:11.229Z,102389.27
2019-03-31T19:19:51.463Z,102385.09
2019-03-31T19:22:54.814Z,102390.20
2019-03-31T19:25:55.364Z,102394.56
2019-03-31T19:28:34.285Z,102400.83
2019-03-31T19:31:24.820Z,102403.60
2019-03-31T19:34:09.696Z,102400.73
2019-03-31T19:36:56.252Z,102406.95
2019-03-31T19:39:43.989Z,102406.91
2019-03-31T19:42:33.412Z,102407.20
2019-03-31T19:45:29.412Z,102408.40
2019-03-31T19:48:29.615Z,102410.13
2019-03-31T19:51:33.143Z,102412.80
2019-03-31T19:54:30.002Z,102420.27
2019-03-31T19:57:14.073Z,102423.25
2019-03-31T20:00:07.393Z,102423.66
2019-03-31T20:03:05.055Z,102436.69
2019-03-31T20:05:46.150Z,102431.02
2019-03-31T20:08:40.790Z,102430.80
2019-03-31T20:11:29.072Z,102438.03
2019-03-31T20:14:15.440Z,102435.66
2019-03-31T20:17:21.969Z,102438.09
2019-03-31T20:20:13.149Z,102433.29
2019-03-31T20:23:07.386Z,102436.77
2019-03-31T20:26:04.805Z,102443.45
2019-03-31T20:28:46.901Z,102438.09
2019-03-31T20:31:38.560Z,102439.34
2019-03-31T20:34:22.767Z,102440.25
2019-03-31T20:37:09.579Z,102438.64
2019-03-31T20:40:04.119Z,102440.77
2019-03-31T20:42:54.609Z,102442.52
2019-03-31T20:45:23.923Z,102452.55
2019-03-31T20:47:53.079Z,102446.97
2019-03-31T20:50:22.466Z,102447.02
2019-03-31T20:52:53.219Z,102449.37
2019-03-31T20:55:22.428Z,102453.09
2019-03-31T20:57:51.623Z,102446.25
2019-03-31T21:00:21.108Z,102453.69
2019-03-31T21:02:50.359Z,102450.16
2019-03-31T21:05:19.560Z,102448.31
2019-03-31T21:07:48.763Z,102452.43
2019-03-31T21:10:17.967Z,102446.53
2019-03-31T21:12:47.347Z,102447.82
2019-03-31T21:15:17.087Z,102442.39
2019-03-31T21:17:46.259Z,102453.26
2019-03-31T21:20:15.530Z,102448.46
2019-03-31T21:22:44.719Z,102450.34
2019-03-31T21:25:13.978Z,102449.63
2019-03-31T21:27:43.062Z,102454.82
2019-03-31T21:30:12.304Z,102455.65
2019-03-31T21:32:41.543Z,102451.88
2019-03-31T21:35:10.694Z,102450.59
2019-03-31T21:37:39.909Z,102453.69
2019-03-31T21:40:09.279Z,102455.13
2019-03-31T21:42:39.901Z,102454.70
2019-03-31T21:45:09.082Z,102456.45
2019-03-31T21:47:38.358Z,102454.80
2019-03-31T21:50:07.878Z,102457.48
2019-03-31T21:52:37.063Z,102462.69
2019-03-31T21:55:07.813Z,102463.71
2019-03-31T21:57:37.020Z,102462.84
2019-03-31T22:00:07.748Z,102462.76
2019-03-31T22:02:36.955Z,102458.56
2019-03-31T22:05:06.666Z,102461.98
2019-03-31T22:07:36.951Z,102466.84
2019-03-31T22:10:06.354Z,102463.05
2019-03-31T22:12:35.524Z,102457.48
2019-03-31T22:15:04.899Z,102463.57
2019-03-31T22:17:34.032Z,102459.22
2019-03-31T22:20:03.171Z,102459.69
2019-03-31T22:22:32.461Z,102457.18
2019-03-31T22:25:02.192Z,102456.69
2019-03-31T22:27:31.399Z,102452.45
2019-03-31T22:30:01.674Z,102453.48
2019-03-31T22:32:30.832Z,102461.05
2019-03-31T22:35:02.584Z,102459.37
2019-03-31T22:37:32.042Z,102451.16
2019-03-31T22:40:01.237Z,102455.80
2019-03-31T22:42:30.406Z,102454.23
2019-03-31T22:44:59.658Z,102450.31
2019-03-31T22:47:28.815Z,102452.61
2019-03-31T22:49:57.946Z,102453.06
2019-03-31T22:52:27.183Z,102449.57
2019-03-31T22:54:56.348Z,102448.13
2019-03-31T22:57:25.489Z,102446.67
2019-03-31T22:59:54.802Z,102444.09
2019-03-31T23:02:23.960Z,102444.41
2019-03-31T23:04:53.096Z,102444.13
2019-03-31T23:07:22.259Z,102450.59
2019-03-31T23:09:51.845Z,102443.59
2019-03-31T23:12:20.987Z,102444.25
2019-03-31T23:14:50.171Z,102438.23
2019-03-31T23:17:19.310Z,102437.80
2019-03-31T23:19:48.479Z,102442.97
2019-03-31T23:22:17.616Z,102439.98
2019-03-31T23:24:48.606Z,102442.61
2019-03-31T23:27:18.054Z,102446.05
2019-03-31T23:29:47.314Z,102434.50
2019-03-31T23:32:16.478Z,102440.02
2019-03-31T23:34:46.784Z,102430.07
2019-03-31T23:37:15.930Z,102442.60
2019-03-31T23:39:45.272Z,102433.23
2019-03-31T23:42:15.503Z,102431.56
2019-03-31T23:44:46.507Z,102433.64
2019-03-31T23:47:15.652Z,102428.95
2019-03-31T23:49:44.945Z,102422.05
2019-03-31T23:52:14.298Z,102426.90
2019-03-31T23:54:43.481Z,102423.36
2019-03-31T23:57:12.625Z,102425.52
2019-03-31T23:59:41.800Z,102427.36
